Roanoke, Illinois
Current Conditions -  °F | °C
As of 2:55 PM on Tuesday 25 Nov 2014 (Local Time) from KC75 Reporting Station
Overcast Overcast  
Wind Chill: 19°   Ceiling: 1600
Heat Index: 26°   Visibility: 10mi
Dew Point: 19°   Wind: 6mph
Humidity: 75%   Direction: 270°W
Pressure: 30.16"   Gusts: NA
Location:  40.8°N, 89.2°W
Report Text: KC75 252055Z AUTO 27005KT 10SM OVC016 M04/M07 A3016 RMK AO2 T10361074
Loading
Personal Weather Stations






























Interactive Weather Map New forecast layout! Learn more

10-Day Weather Forecast

Advertisements
Track Severe Weather on mobile